ROMMA est une association bénévole à but non lucratif. Votre soutien est indispensable : ADHERER à ROMMA ou FAIRE un DON

Granges-lès-Beaumont - (26, Drôme)

Drôme des Collines (155 m)   Longitude: 04°58'E   Latitude: 45°03'N Station partenaire n°123
 

Détail journalier du     <<     >>

Température Precipitation Humidité Pression Vent Dir Rafale Dir. rafale Ensol.
Heure (°C) (mm) (%) (hPa) (km/h) (km/h) (min)
01:00 7.1083103411NNO19NNO0
02:00 6.608410349NNO19NNO0
03:00 5.908510348NNO15NO0
04:00 5.108810347NNO11NNO0
05:00 4.008910345NNO11NNO0
06:00 3.609010345NNO10NNO0
07:00 2.909010341---8NNO0
08:00 2.3091103500---0
09:00 1.8092103500---0
10:00 3.208910351---5N20
11:00 4.408810352N6N40
12:00 6.108110355OSO11NO0
13:00 6.907710345NNO11NNO50
14:00 7.107810347ONO16O30
15:00 7.407910337NO13NNO20
16:00 7.307910337NO15O50
17:00 6.308110339NO18NO30
18:00 5.008510338NNO16NO0
19:00 4.5086103311NNO19NNO0
20:00 4.0088103410NNO19NNO0
21:00 3.6089103410NNO21NNO0
22:00 3.209010349NO16ONO0
23:00 2.509010355NO15N0
minuit 2.709110348NO18NO0

Graphique du 29-12-2019

 

Serveur OMMA